sensor_id;sensor_type;location;lat;lon;timestamp;P1;durP1;ratioP1;P2;durP2;ratioP2
12288;SDS011;6207;49.308;7.336;2023-04-03T06:51:47;13.30;;;12.60;;
12288;SDS011;6207;49.308;7.336;2023-04-03T07:26:02;14.83;;;13.53;;
12288;SDS011;6207;49.308;7.336;2023-04-03T07:28:29;12.90;;;12.10;;
12288;SDS011;6207;49.308;7.336;2023-04-03T07:35:59;13.20;;;12.50;;
12288;SDS011;6207;49.308;7.336;2023-04-03T07:38:26;13.30;;;12.40;;
12288;SDS011;6207;49.308;7.336;2023-04-03T07:40:53;13.17;;;12.27;;
12288;SDS011;6207;49.308;7.336;2023-04-03T07:43:20;12.50;;;11.80;;
12288;SDS011;6207;49.308;7.336;2023-04-03T07:45:48;13.50;;;12.60;;
12288;SDS011;6207;49.308;7.336;2023-04-03T07:48:19;13.40;;;12.37;;
12288;SDS011;6207;49.308;7.336;2023-04-03T07:50:47;13.10;;;12.30;;
12288;SDS011;6207;49.308;7.336;2023-04-03T07:53:14;13.00;;;12.23;;
12288;SDS011;6207;49.308;7.336;2023-04-03T07:55:41;12.63;;;11.93;;
12288;SDS011;6207;49.308;7.336;2023-04-03T07:58:11;12.77;;;12.13;;
12288;SDS011;6207;49.308;7.336;2023-04-03T08:00:42;13.30;;;12.50;;
12288;SDS011;6207;49.308;7.336;2023-04-03T08:03:10;13.53;;;12.53;;
12288;SDS011;6207;49.308;7.336;2023-04-03T08:05:39;13.37;;;12.10;;
12288;SDS011;6207;49.308;7.336;2023-04-03T08:08:07;13.27;;;12.57;;
12288;SDS011;6207;49.308;7.336;2023-04-03T08:10:35;12.83;;;12.13;;
12288;SDS011;6207;49.308;7.336;2023-04-03T08:13:03;13.03;;;12.33;;
12288;SDS011;6207;49.308;7.336;2023-04-03T08:15:30;13.13;;;12.40;;
12288;SDS011;6207;49.308;7.336;2023-04-03T08:17:58;12.90;;;12.20;;
12288;SDS011;6207;49.308;7.336;2023-04-03T08:20:26;13.33;;;12.63;;
12288;SDS011;6207;49.308;7.336;2023-04-03T08:22:53;14.07;;;13.17;;
12288;SDS011;6207;49.308;7.336;2023-04-03T08:25:20;13.90;;;12.93;;
12288;SDS011;6207;49.308;7.336;2023-04-03T08:27:47;13.50;;;12.60;;
12288;SDS011;6207;49.308;7.336;2023-04-03T08:30:14;13.40;;;12.40;;
12288;SDS011;6207;49.308;7.336;2023-04-03T08:32:41;13.77;;;12.87;;
12288;SDS011;6207;49.308;7.336;2023-04-03T08:35:09;13.20;;;12.30;;
12288;SDS011;6207;49.308;7.336;2023-04-03T08:37:37;13.67;;;12.87;;
12288;SDS011;6207;49.308;7.336;2023-04-03T08:40:05;12.97;;;12.10;;
12288;SDS011;6207;49.308;7.336;2023-04-03T08:42:37;12.87;;;12.20;;
12288;SDS011;6207;49.308;7.336;2023-04-03T08:45:28;15.00;;;13.80;;
12288;SDS011;6207;49.308;7.336;2023-04-03T08:48:19;13.30;;;12.60;;
12288;SDS011;6207;49.308;7.336;2023-04-03T08:51:09;12.97;;;12.27;;
12288;SDS011;6207;49.308;7.336;2023-04-03T08:53:59;13.37;;;12.47;;
12288;SDS011;6207;49.308;7.336;2023-04-03T08:56:34;13.37;;;12.50;;
12288;SDS011;6207;49.308;7.336;2023-04-03T08:59:05;12.93;;;12.23;;
12288;SDS011;6207;49.308;7.336;2023-04-03T09:01:40;12.40;;;11.77;;
12288;SDS011;6207;49.308;7.336;2023-04-03T09:04:11;12.80;;;11.97;;
12288;SDS011;6207;49.308;7.336;2023-04-03T09:06:45;12.97;;;12.27;;
12288;SDS011;6207;49.308;7.336;2023-04-03T09:17:33;12.70;;;12.10;;
12288;SDS011;6207;49.308;7.336;2023-04-03T09:23:17;13.90;;;12.90;;
12288;SDS011;6207;49.308;7.336;2023-04-03T09:25:53;14.30;;;13.30;;
12288;SDS011;6207;49.308;7.336;2023-04-03T09:28:27;13.60;;;12.80;;
12288;SDS011;6207;49.308;7.336;2023-04-03T09:31:14;13.30;;;12.60;;
12288;SDS011;6207;49.308;7.336;2023-04-03T09:33:49;13.00;;;12.30;;
12288;SDS011;6207;49.308;7.336;2023-04-03T09:36:40;13.60;;;12.70;;
12288;SDS011;6207;49.308;7.336;2023-04-03T09:39:14;12.93;;;12.23;;
12288;SDS011;6207;49.308;7.336;2023-04-03T09:42:02;13.50;;;12.60;;
12288;SDS011;6207;49.308;7.336;2023-04-03T09:44:31;12.53;;;11.83;;
12288;SDS011;6207;49.308;7.336;2023-04-03T09:47:17;12.90;;;12.20;;
12288;SDS011;6207;49.308;7.336;2023-04-03T09:49:44;13.27;;;12.57;;
12288;SDS011;6207;49.308;7.336;2023-04-03T09:52:18;13.50;;;12.70;;
12288;SDS011;6207;49.308;7.336;2023-04-03T09:54:48;13.17;;;12.43;;
12288;SDS011;6207;49.308;7.336;2023-04-03T09:57:15;13.70;;;12.70;;
12288;SDS011;6207;49.308;7.336;2023-04-03T10:00:04;14.25;;;13.20;;
12288;SDS011;6207;49.308;7.336;2023-04-03T10:02:32;12.87;;;11.97;;
12288;SDS011;6207;49.308;7.336;2023-04-03T10:05:25;13.43;;;12.63;;
12288;SDS011;6207;49.308;7.336;2023-04-03T10:08:19;13.60;;;12.80;;
12288;SDS011;6207;49.308;7.336;2023-04-03T10:11:05;13.30;;;12.60;;
12288;SDS011;6207;49.308;7.336;2023-04-03T10:13:49;13.93;;;13.03;;
12288;SDS011;6207;49.308;7.336;2023-04-03T10:16:18;13.10;;;12.40;;
12288;SDS011;6207;49.308;7.336;2023-04-03T10:21:32;12.60;;;11.90;;
12288;SDS011;6207;49.308;7.336;2023-04-03T10:24:18;13.37;;;12.53;;
12288;SDS011;6207;49.308;7.336;2023-04-03T10:29:40;14.40;;;13.53;;
12288;SDS011;6207;49.308;7.336;2023-04-03T10:35:03;14.30;;;13.50;;
12288;SDS011;6207;49.308;7.336;2023-04-03T10:40:23;13.40;;;12.50;;
12288;SDS011;6207;49.308;7.336;2023-04-03T10:43:09;13.13;;;12.40;;
12288;SDS011;6207;49.308;7.336;2023-04-03T10:56:47;14.70;;;13.70;;
12288;SDS011;6207;49.308;7.336;2023-04-03T11:02:31;13.13;;;12.33;;
12288;SDS011;6207;49.308;7.336;2023-04-03T11:07:39;14.60;;;13.67;;
12288;SDS011;6207;49.308;7.336;2023-04-03T11:10:10;12.80;;;12.10;;
12288;SDS011;6207;49.308;7.336;2023-04-03T11:12:49;12.93;;;12.03;;
12288;SDS011;6207;49.308;7.336;2023-04-03T11:15:22;12.40;;;11.80;;
12288;SDS011;6207;49.308;7.336;2023-04-03T11:17:55;13.30;;;12.60;;
12288;SDS011;6207;49.308;7.336;2023-04-03T11:20:35;13.57;;;12.87;;
12288;SDS011;6207;49.308;7.336;2023-04-03T11:23:21;13.70;;;12.80;;
12288;SDS011;6207;49.308;7.336;2023-04-03T11:26:11;13.10;;;12.30;;
12288;SDS011;6207;49.308;7.336;2023-04-03T11:28:50;13.30;;;12.50;;
12288;SDS011;6207;49.308;7.336;2023-04-03T11:34:03;13.20;;;12.40;;
12288;SDS011;6207;49.308;7.336;2023-04-03T11:39:14;12.90;;;12.20;;
12288;SDS011;6207;49.308;7.336;2023-04-03T11:41:49;14.13;;;13.37;;
12288;SDS011;6207;49.308;7.336;2023-04-03T11:44:35;14.20;;;13.43;;
12288;SDS011;6207;49.308;7.336;2023-04-03T11:47:08;13.53;;;12.73;;
12288;SDS011;6207;49.308;7.336;2023-04-03T11:55:53;12.90;;;12.20;;
12288;SDS011;6207;49.308;7.336;2023-04-03T11:58:16;13.97;;;13.07;;
12288;SDS011;6207;49.308;7.336;2023-04-03T12:00:48;13.17;;;12.37;;
12288;SDS011;6207;49.308;7.336;2023-04-03T12:08:27;12.40;;;11.70;;
12288;SDS011;6207;49.308;7.336;2023-04-03T12:11:13;12.77;;;12.07;;
12288;SDS011;6207;49.308;7.336;2023-04-03T12:14:03;13.03;;;12.27;;
12288;SDS011;6207;49.308;7.336;2023-04-03T12:22:09;12.60;;;11.80;;
12288;SDS011;6207;49.308;7.336;2023-04-03T12:24:39;13.17;;;12.47;;
12288;SDS011;6207;49.308;7.336;2023-04-03T12:30:04;13.50;;;12.40;;
12288;SDS011;6207;49.308;7.336;2023-04-03T12:33:11;12.60;;;11.90;;
12288;SDS011;6207;49.308;7.336;2023-04-03T12:36:07;12.73;;;11.93;;
12288;SDS011;6207;49.308;7.336;2023-04-03T12:38:52;13.00;;;12.20;;
12288;SDS011;6207;49.308;7.336;2023-04-03T12:41:55;12.63;;;11.93;;
12288;SDS011;6207;49.308;7.336;2023-04-03T12:44:40;12.40;;;11.80;;
12288;SDS011;6207;49.308;7.336;2023-04-03T12:47:32;14.07;;;13.27;;
12288;SDS011;6207;49.308;7.336;2023-04-03T12:50:03;13.20;;;12.50;;
12288;SDS011;6207;49.308;7.336;2023-04-03T12:52:42;13.53;;;12.80;;
12288;SDS011;6207;49.308;7.336;2023-04-03T12:55:16;12.73;;;12.03;;
12288;SDS011;6207;49.308;7.336;2023-04-03T12:57:46;13.70;;;12.80;;
12288;SDS011;6207;49.308;7.336;2023-04-03T13:00:20;13.43;;;12.57;;
12288;SDS011;6207;49.308;7.336;2023-04-03T13:02:52;12.90;;;12.20;;
12288;SDS011;6207;49.308;7.336;2023-04-03T13:05:19;13.43;;;12.63;;
12288;SDS011;6207;49.308;7.336;2023-04-03T13:07:56;13.53;;;12.63;;
12288;SDS011;6207;49.308;7.336;2023-04-03T13:10:29;13.20;;;12.40;;
12288;SDS011;6207;49.308;7.336;2023-04-03T13:12:57;13.10;;;12.30;;
12288;SDS011;6207;49.308;7.336;2023-04-03T13:15:40;13.30;;;12.40;;
12288;SDS011;6207;49.308;7.336;2023-04-03T13:18:28;13.40;;;12.70;;
12288;SDS011;6207;49.308;7.336;2023-04-03T13:21:04;12.90;;;12.20;;
12288;SDS011;6207;49.308;7.336;2023-04-03T13:23:38;13.20;;;12.50;;
12288;SDS011;6207;49.308;7.336;2023-04-03T13:26:09;12.60;;;12.00;;
12288;SDS011;6207;49.308;7.336;2023-04-03T13:28:36;13.60;;;12.90;;
12288;SDS011;6207;49.308;7.336;2023-04-03T13:33:51;13.23;;;12.40;;
12288;SDS011;6207;49.308;7.336;2023-04-03T13:36:26;12.87;;;12.07;;
12288;SDS011;6207;49.308;7.336;2023-04-03T13:39:01;12.30;;;11.60;;
12288;SDS011;6207;49.308;7.336;2023-04-03T13:41:52;12.43;;;11.80;;
12288;SDS011;6207;49.308;7.336;2023-04-03T13:46:47;13.73;;;12.93;;
12288;SDS011;6207;49.308;7.336;2023-04-03T13:49:20;14.23;;;13.30;;
12288;SDS011;6207;49.308;7.336;2023-04-03T13:54:58;14.83;;;14.03;;
12288;SDS011;6207;49.308;7.336;2023-04-03T13:57:29;13.10;;;12.40;;
12288;SDS011;6207;49.308;7.336;2023-04-03T13:59:56;13.40;;;12.17;;
12288;SDS011;6207;49.308;7.336;2023-04-03T14:02:29;13.20;;;12.40;;
12288;SDS011;6207;49.308;7.336;2023-04-03T14:04:59;12.60;;;11.90;;
12288;SDS011;6207;49.308;7.336;2023-04-03T14:07:28;12.37;;;11.77;;
12288;SDS011;6207;49.308;7.336;2023-04-03T14:09:57;12.37;;;11.77;;
12288;SDS011;6207;49.308;7.336;2023-04-03T14:12:25;13.10;;;12.40;;
12288;SDS011;6207;49.308;7.336;2023-04-03T14:15:00;12.33;;;11.70;;
12288;SDS011;6207;49.308;7.336;2023-04-03T14:17:28;13.00;;;12.30;;
12288;SDS011;6207;49.308;7.336;2023-04-03T14:19:57;12.10;;;11.50;;
12288;SDS011;6207;49.308;7.336;2023-04-03T14:22:25;12.77;;;12.07;;
12288;SDS011;6207;49.308;7.336;2023-04-03T14:24:55;12.43;;;11.73;;
12288;SDS011;6207;49.308;7.336;2023-04-03T14:27:24;12.33;;;11.63;;
12288;SDS011;6207;49.308;7.336;2023-04-03T14:30:02;12.80;;;11.90;;
12288;SDS011;6207;49.308;7.336;2023-04-03T14:32:30;12.40;;;11.77;;
12288;SDS011;6207;49.308;7.336;2023-04-03T14:34:57;12.27;;;11.67;;
12288;SDS011;6207;49.308;7.336;2023-04-03T14:37:25;12.93;;;12.23;;
12288;SDS011;6207;49.308;7.336;2023-04-03T14:39:55;12.47;;;11.73;;
12288;SDS011;6207;49.308;7.336;2023-04-03T14:42:25;12.30;;;11.70;;
12288;SDS011;6207;49.308;7.336;2023-04-03T14:44:54;11.87;;;11.10;;
12288;SDS011;6207;49.308;7.336;2023-04-03T14:47:22;11.97;;;11.37;;
12288;SDS011;6207;49.308;7.336;2023-04-03T14:49:57;12.10;;;11.40;;
12288;SDS011;6207;49.308;7.336;2023-04-03T14:52:30;12.43;;;11.83;;
12288;SDS011;6207;49.308;7.336;2023-04-03T14:54:58;12.93;;;12.00;;
12288;SDS011;6207;49.308;7.336;2023-04-03T14:57:27;13.23;;;12.47;;
12288;SDS011;6207;49.308;7.336;2023-04-03T14:59:55;11.80;;;11.20;;
12288;SDS011;6207;49.308;7.336;2023-04-03T15:02:26;12.60;;;11.80;;
12288;SDS011;6207;49.308;7.336;2023-04-03T15:05:06;12.73;;;12.00;;
12288;SDS011;6207;49.308;7.336;2023-04-03T15:07:36;13.00;;;12.30;;
12288;SDS011;6207;49.308;7.336;2023-04-03T15:10:20;12.60;;;12.00;;
12288;SDS011;6207;49.308;7.336;2023-04-03T15:12:49;12.70;;;11.90;;
12288;SDS011;6207;49.308;7.336;2023-04-03T15:15:18;12.60;;;11.90;;
12288;SDS011;6207;49.308;7.336;2023-04-03T15:17:46;12.97;;;12.10;;
12288;SDS011;6207;49.308;7.336;2023-04-03T15:20:21;13.53;;;12.53;;
12288;SDS011;6207;49.308;7.336;2023-04-03T15:22:50;11.93;;;11.33;;
12288;SDS011;6207;49.308;7.336;2023-04-03T15:25:17;11.83;;;11.23;;
12288;SDS011;6207;49.308;7.336;2023-04-03T15:27:44;12.17;;;11.57;;
12288;SDS011;6207;49.308;7.336;2023-04-03T15:30:13;12.33;;;11.53;;
12288;SDS011;6207;49.308;7.336;2023-04-03T15:32:43;12.00;;;11.40;;
12288;SDS011;6207;49.308;7.336;2023-04-03T15:35:10;12.00;;;11.30;;
12288;SDS011;6207;49.308;7.336;2023-04-03T15:37:36;12.23;;;11.33;;
12288;SDS011;6207;49.308;7.336;2023-04-03T15:40:04;12.03;;;11.33;;
12288;SDS011;6207;49.308;7.336;2023-04-03T15:42:31;11.90;;;11.20;;
12288;SDS011;6207;49.308;7.336;2023-04-03T15:44:58;12.03;;;11.40;;
12288;SDS011;6207;49.308;7.336;2023-04-03T15:47:25;12.73;;;11.97;;
12288;SDS011;6207;49.308;7.336;2023-04-03T15:49:53;12.90;;;12.20;;
12288;SDS011;6207;49.308;7.336;2023-04-03T15:52:21;13.30;;;12.30;;
12288;SDS011;6207;49.308;7.336;2023-04-03T15:54:48;12.70;;;11.90;;
12288;SDS011;6207;49.308;7.336;2023-04-03T15:57:14;12.37;;;11.67;;
12288;SDS011;6207;49.308;7.336;2023-04-03T15:59:41;12.53;;;11.90;;
12288;SDS011;6207;49.308;7.336;2023-04-03T16:02:08;12.13;;;11.53;;
12288;SDS011;6207;49.308;7.336;2023-04-03T16:04:39;12.83;;;12.17;;
12288;SDS011;6207;49.308;7.336;2023-04-03T16:07:06;13.00;;;12.20;;
12288;SDS011;6207;49.308;7.336;2023-04-03T16:09:33;13.20;;;12.20;;
12288;SDS011;6207;49.308;7.336;2023-04-03T16:12:00;12.73;;;11.87;;
12288;SDS011;6207;49.308;7.336;2023-04-03T16:14:28;12.93;;;12.13;;
12288;SDS011;6207;49.308;7.336;2023-04-03T16:16:56;12.57;;;11.87;;
12288;SDS011;6207;49.308;7.336;2023-04-03T16:19:27;12.00;;;11.40;;
12288;SDS011;6207;49.308;7.336;2023-04-03T16:21:54;12.97;;;12.13;;
12288;SDS011;6207;49.308;7.336;2023-04-03T16:24:22;12.77;;;11.93;;
12288;SDS011;6207;49.308;7.336;2023-04-03T16:26:48;12.00;;;11.30;;
12288;SDS011;6207;49.308;7.336;2023-04-03T16:29:15;12.13;;;11.53;;
12288;SDS011;6207;49.308;7.336;2023-04-03T16:31:42;12.10;;;11.50;;
12288;SDS011;6207;49.308;7.336;2023-04-03T16:34:09;12.27;;;11.60;;
12288;SDS011;6207;49.308;7.336;2023-04-03T16:36:36;11.60;;;11.00;;
12288;SDS011;6207;49.308;7.336;2023-04-03T16:39:03;11.10;;;10.50;;
12288;SDS011;6207;49.308;7.336;2023-04-03T16:41:30;11.00;;;10.30;;
12288;SDS011;6207;49.308;7.336;2023-04-03T16:43:58;11.70;;;11.10;;
12288;SDS011;6207;49.308;7.336;2023-04-03T16:46:24;11.60;;;11.00;;
12288;SDS011;6207;49.308;7.336;2023-04-03T16:48:51;11.73;;;11.23;;
12288;SDS011;6207;49.308;7.336;2023-04-03T16:51:18;12.40;;;11.70;;
12288;SDS011;6207;49.308;7.336;2023-04-03T16:53:44;12.37;;;11.67;;
12288;SDS011;6207;49.308;7.336;2023-04-03T16:56:11;12.77;;;12.03;;
12288;SDS011;6207;49.308;7.336;2023-04-03T16:58:38;12.80;;;12.10;;
12288;SDS011;6207;49.308;7.336;2023-04-03T17:01:11;12.13;;;11.50;;
12288;SDS011;6207;49.308;7.336;2023-04-03T17:03:40;12.57;;;11.87;;
12288;SDS011;6207;49.308;7.336;2023-04-03T17:06:07;11.93;;;11.33;;
12288;SDS011;6207;49.308;7.336;2023-04-03T17:08:34;13.03;;;12.30;;
12288;SDS011;6207;49.308;7.336;2023-04-03T17:11:01;12.60;;;11.90;;
12288;SDS011;6207;49.308;7.336;2023-04-03T17:13:27;12.30;;;11.60;;
12288;SDS011;6207;49.308;7.336;2023-04-03T17:15:58;12.30;;;11.60;;
12288;SDS011;6207;49.308;7.336;2023-04-03T17:18:25;12.00;;;11.40;;
12288;SDS011;6207;49.308;7.336;2023-04-03T17:20:53;12.53;;;11.63;;
12288;SDS011;6207;49.308;7.336;2023-04-03T17:23:21;11.70;;;11.10;;
12288;SDS011;6207;49.308;7.336;2023-04-03T17:25:48;12.60;;;11.80;;
12288;SDS011;6207;49.308;7.336;2023-04-03T17:28:15;12.67;;;11.87;;
12288;SDS011;6207;49.308;7.336;2023-04-03T17:30:42;12.80;;;12.10;;
12288;SDS011;6207;49.308;7.336;2023-04-03T17:33:08;12.00;;;11.40;;
12288;SDS011;6207;49.308;7.336;2023-04-03T17:35:35;12.60;;;11.90;;
12288;SDS011;6207;49.308;7.336;2023-04-03T17:38:02;12.50;;;11.70;;
12288;SDS011;6207;49.308;7.336;2023-04-03T17:40:30;12.80;;;12.00;;
12288;SDS011;6207;49.308;7.336;2023-04-03T17:42:56;12.90;;;12.10;;
12288;SDS011;6207;49.308;7.336;2023-04-03T17:45:23;13.03;;;12.33;;
12288;SDS011;6207;49.308;7.336;2023-04-03T17:47:50;13.43;;;12.60;;
12288;SDS011;6207;49.308;7.336;2023-04-03T17:50:18;12.77;;;12.17;;
12288;SDS011;6207;49.308;7.336;2023-04-03T17:52:45;13.17;;;12.37;;
12288;SDS011;6207;49.308;7.336;2023-04-03T17:55:11;12.43;;;11.80;;
12288;SDS011;6207;49.308;7.336;2023-04-03T17:57:40;13.07;;;12.37;;
12288;SDS011;6207;49.308;7.336;2023-04-03T18:00:07;12.80;;;12.20;;
12288;SDS011;6207;49.308;7.336;2023-04-03T18:02:37;13.40;;;12.60;;
12288;SDS011;6207;49.308;7.336;2023-04-03T18:05:04;13.00;;;12.20;;
12288;SDS011;6207;49.308;7.336;2023-04-03T18:07:31;13.27;;;12.57;;
12288;SDS011;6207;49.308;7.336;2023-04-03T18:09:57;12.97;;;12.20;;
12288;SDS011;6207;49.308;7.336;2023-04-03T18:12:25;13.20;;;12.50;;
12288;SDS011;6207;49.308;7.336;2023-04-03T18:14:51;13.50;;;12.80;;
12288;SDS011;6207;49.308;7.336;2023-04-03T18:17:18;13.27;;;12.43;;
12288;SDS011;6207;49.308;7.336;2023-04-03T18:19:45;12.73;;;12.03;;
12288;SDS011;6207;49.308;7.336;2023-04-03T18:22:13;13.80;;;13.00;;
12288;SDS011;6207;49.308;7.336;2023-04-03T18:24:42;13.50;;;12.70;;
12288;SDS011;6207;49.308;7.336;2023-04-03T18:27:10;13.80;;;13.00;;
12288;SDS011;6207;49.308;7.336;2023-04-03T18:29:40;13.63;;;12.83;;
12288;SDS011;6207;49.308;7.336;2023-04-03T18:32:09;14.00;;;13.10;;
12288;SDS011;6207;49.308;7.336;2023-04-03T18:34:38;13.90;;;13.00;;
12288;SDS011;6207;49.308;7.336;2023-04-03T18:37:04;13.30;;;12.43;;
12288;SDS011;6207;49.308;7.336;2023-04-03T18:39:31;13.47;;;12.77;;
12288;SDS011;6207;49.308;7.336;2023-04-03T18:42:01;14.37;;;13.47;;
12288;SDS011;6207;49.308;7.336;2023-04-03T18:44:34;13.67;;;12.80;;
12288;SDS011;6207;49.308;7.336;2023-04-03T18:47:02;14.00;;;13.10;;
12288;SDS011;6207;49.308;7.336;2023-04-03T18:49:29;14.00;;;13.10;;
12288;SDS011;6207;49.308;7.336;2023-04-03T18:51:59;14.13;;;13.13;;
12288;SDS011;6207;49.308;7.336;2023-04-03T18:54:26;13.93;;;13.13;;
12288;SDS011;6207;49.308;7.336;2023-04-03T18:56:53;13.80;;;12.83;;
12288;SDS011;6207;49.308;7.336;2023-04-03T18:59:19;13.70;;;12.80;;
12288;SDS011;6207;49.308;7.336;2023-04-03T19:01:47;13.00;;;12.20;;
12288;SDS011;6207;49.308;7.336;2023-04-03T19:04:13;13.10;;;12.40;;
12288;SDS011;6207;49.308;7.336;2023-04-03T19:06:40;13.77;;;12.73;;
12288;SDS011;6207;49.308;7.336;2023-04-03T19:09:07;13.97;;;13.00;;
12288;SDS011;6207;49.308;7.336;2023-04-03T19:11:34;13.50;;;12.50;;
12288;SDS011;6207;49.308;7.336;2023-04-03T19:14:01;13.97;;;13.17;;
12288;SDS011;6207;49.308;7.336;2023-04-03T19:16:42;13.40;;;12.60;;
12288;SDS011;6207;49.308;7.336;2023-04-03T19:19:09;12.47;;;11.77;;
12288;SDS011;6207;49.308;7.336;2023-04-03T19:21:36;13.37;;;12.57;;
12288;SDS011;6207;49.308;7.336;2023-04-03T19:24:07;13.00;;;12.20;;
12288;SDS011;6207;49.308;7.336;2023-04-03T19:26:36;13.00;;;12.20;;
12288;SDS011;6207;49.308;7.336;2023-04-03T19:29:03;12.80;;;12.10;;
12288;SDS011;6207;49.308;7.336;2023-04-03T19:31:30;12.77;;;12.07;;
12288;SDS011;6207;49.308;7.336;2023-04-03T19:33:59;12.53;;;11.83;;
12288;SDS011;6207;49.308;7.336;2023-04-03T19:36:27;12.90;;;12.10;;
12288;SDS011;6207;49.308;7.336;2023-04-03T19:38:54;13.33;;;12.53;;
12288;SDS011;6207;49.308;7.336;2023-04-03T19:41:22;12.83;;;12.10;;
12288;SDS011;6207;49.308;7.336;2023-04-03T19:43:50;13.20;;;12.40;;
12288;SDS011;6207;49.308;7.336;2023-04-03T19:46:21;13.60;;;12.70;;
12288;SDS011;6207;49.308;7.336;2023-04-03T19:48:49;12.70;;;12.10;;
12288;SDS011;6207;49.308;7.336;2023-04-03T19:51:16;13.07;;;12.37;;
12288;SDS011;6207;49.308;7.336;2023-04-03T19:53:43;12.80;;;12.10;;
12288;SDS011;6207;49.308;7.336;2023-04-03T19:56:12;13.53;;;12.77;;
12288;SDS011;6207;49.308;7.336;2023-04-03T19:58:41;12.90;;;12.10;;
12288;SDS011;6207;49.308;7.336;2023-04-03T20:01:09;12.67;;;11.97;;
12288;SDS011;6207;49.308;7.336;2023-04-03T20:03:36;12.70;;;12.00;;
12288;SDS011;6207;49.308;7.336;2023-04-03T20:06:03;12.67;;;11.80;;
12288;SDS011;6207;49.308;7.336;2023-04-03T20:08:30;12.77;;;12.07;;
12288;SDS011;6207;49.308;7.336;2023-04-03T20:10:57;12.50;;;11.70;;
12288;SDS011;6207;49.308;7.336;2023-04-03T20:13:24;13.07;;;12.20;;
12288;SDS011;6207;49.308;7.336;2023-04-03T20:15:50;12.90;;;11.90;;
12288;SDS011;6207;49.308;7.336;2023-04-03T20:18:19;12.40;;;11.80;;
12288;SDS011;6207;49.308;7.336;2023-04-03T20:20:53;12.63;;;11.93;;
12288;SDS011;6207;49.308;7.336;2023-04-03T20:23:21;12.20;;;11.60;;
12288;SDS011;6207;49.308;7.336;2023-04-03T20:25:49;12.30;;;11.70;;
12288;SDS011;6207;49.308;7.336;2023-04-03T20:28:34;13.10;;;12.00;;
12288;SDS011;6207;49.308;7.336;2023-04-03T20:31:03;12.40;;;11.70;;
12288;SDS011;6207;49.308;7.336;2023-04-03T20:33:31;12.77;;;11.97;;
12288;SDS011;6207;49.308;7.336;2023-04-03T20:35:58;12.33;;;11.73;;
12288;SDS011;6207;49.308;7.336;2023-04-03T20:38:24;12.40;;;11.50;;
12288;SDS011;6207;49.308;7.336;2023-04-03T20:40:51;12.03;;;11.43;;
12288;SDS011;6207;49.308;7.336;2023-04-03T20:43:18;13.07;;;12.27;;
12288;SDS011;6207;49.308;7.336;2023-04-03T20:45:47;12.30;;;11.70;;
12288;SDS011;6207;49.308;7.336;2023-04-03T20:48:14;12.50;;;11.77;;
12288;SDS011;6207;49.308;7.336;2023-04-03T20:50:41;12.50;;;11.80;;
12288;SDS011;6207;49.308;7.336;2023-04-03T20:53:11;12.83;;;12.10;;
12288;SDS011;6207;49.308;7.336;2023-04-03T20:55:38;12.90;;;12.20;;
12288;SDS011;6207;49.308;7.336;2023-04-03T20:58:05;12.47;;;11.83;;
12288;SDS011;6207;49.308;7.336;2023-04-03T21:00:32;13.07;;;12.37;;
12288;SDS011;6207;49.308;7.336;2023-04-03T21:02:58;12.47;;;11.67;;
12288;SDS011;6207;49.308;7.336;2023-04-03T21:05:27;12.50;;;11.60;;
12288;SDS011;6207;49.308;7.336;2023-04-03T21:19:39;12.13;;;11.40;;
12288;SDS011;6207;49.308;7.336;2023-04-03T21:22:12;12.03;;;11.43;;
12288;SDS011;6207;49.308;7.336;2023-04-03T21:24:39;12.67;;;11.77;;
12288;SDS011;6207;49.308;7.336;2023-04-03T21:27:06;12.80;;;12.10;;
12288;SDS011;6207;49.308;7.336;2023-04-03T21:29:33;12.27;;;11.67;;
12288;SDS011;6207;49.308;7.336;2023-04-03T21:32:00;12.63;;;11.93;;
12288;SDS011;6207;49.308;7.336;2023-04-03T21:34:28;12.93;;;12.20;;
12288;SDS011;6207;49.308;7.336;2023-04-03T21:36:56;12.10;;;11.50;;
12288;SDS011;6207;49.308;7.336;2023-04-03T21:39:30;12.60;;;11.90;;
12288;SDS011;6207;49.308;7.336;2023-04-03T21:41:57;12.40;;;11.47;;
12288;SDS011;6207;49.308;7.336;2023-04-03T21:44:24;12.73;;;12.00;;
12288;SDS011;6207;49.308;7.336;2023-04-03T21:46:53;12.93;;;12.13;;
12288;SDS011;6207;49.308;7.336;2023-04-03T21:49:20;12.63;;;11.50;;
12288;SDS011;6207;49.308;7.336;2023-04-03T21:51:48;12.50;;;11.70;;
12288;SDS011;6207;49.308;7.336;2023-04-03T21:54:17;12.93;;;12.23;;
12288;SDS011;6207;49.308;7.336;2023-04-03T21:56:44;12.40;;;11.80;;
12288;SDS011;6207;49.308;7.336;2023-04-03T21:59:13;12.80;;;12.10;;
12288;SDS011;6207;49.308;7.336;2023-04-03T22:01:41;12.90;;;12.20;;
12288;SDS011;6207;49.308;7.336;2023-04-03T22:04:08;11.67;;;11.13;;
12288;SDS011;6207;49.308;7.336;2023-04-03T22:06:35;12.67;;;12.03;;
12288;SDS011;6207;49.308;7.336;2023-04-03T22:09:03;11.90;;;11.40;;
12288;SDS011;6207;49.308;7.336;2023-04-03T22:11:29;12.27;;;11.60;;
12288;SDS011;6207;49.308;7.336;2023-04-03T22:13:56;12.27;;;11.67;;
12288;SDS011;6207;49.308;7.336;2023-04-03T22:16:23;12.60;;;11.80;;
12288;SDS011;6207;49.308;7.336;2023-04-03T22:18:50;12.60;;;11.87;;
12288;SDS011;6207;49.308;7.336;2023-04-03T22:21:17;12.30;;;11.70;;
12288;SDS011;6207;49.308;7.336;2023-04-03T22:23:45;11.83;;;11.13;;
12288;SDS011;6207;49.308;7.336;2023-04-03T22:26:12;12.37;;;11.57;;
12288;SDS011;6207;49.308;7.336;2023-04-03T22:28:40;12.03;;;11.43;;
12288;SDS011;6207;49.308;7.336;2023-04-03T22:31:09;11.93;;;11.23;;
12288;SDS011;6207;49.308;7.336;2023-04-03T22:33:39;12.20;;;11.60;;
12288;SDS011;6207;49.308;7.336;2023-04-03T22:36:07;12.20;;;11.50;;
12288;SDS011;6207;49.308;7.336;2023-04-03T22:38:36;12.17;;;11.37;;
12288;SDS011;6207;49.308;7.336;2023-04-03T22:41:04;12.70;;;11.80;;
12288;SDS011;6207;49.308;7.336;2023-04-03T22:43:33;12.30;;;11.50;;
12288;SDS011;6207;49.308;7.336;2023-04-03T22:46:02;12.50;;;11.70;;
12288;SDS011;6207;49.308;7.336;2023-04-03T22:48:30;11.77;;;11.17;;
12288;SDS011;6207;49.308;7.336;2023-04-03T22:50:57;12.60;;;11.90;;
12288;SDS011;6207;49.308;7.336;2023-04-03T22:53:25;13.10;;;12.10;;
12288;SDS011;6207;49.308;7.336;2023-04-03T22:58:25;12.60;;;11.90;;
12288;SDS011;6207;49.308;7.336;2023-04-03T23:00:53;12.13;;;11.43;;
12288;SDS011;6207;49.308;7.336;2023-04-03T23:03:21;11.73;;;11.03;;
12288;SDS011;6207;49.308;7.336;2023-04-03T23:05:49;11.90;;;11.30;;
12288;SDS011;6207;49.308;7.336;2023-04-03T23:08:17;11.53;;;10.93;;
12288;SDS011;6207;49.308;7.336;2023-04-03T23:10:44;11.47;;;10.90;;
12288;SDS011;6207;49.308;7.336;2023-04-03T23:13:12;12.10;;;11.30;;
12288;SDS011;6207;49.308;7.336;2023-04-03T23:15:38;12.83;;;11.60;;
12288;SDS011;6207;49.308;7.336;2023-04-03T23:18:05;12.17;;;11.47;;
12288;SDS011;6207;49.308;7.336;2023-04-03T23:20:32;12.37;;;11.57;;
12288;SDS011;6207;49.308;7.336;2023-04-03T23:22:59;11.70;;;11.20;;
12288;SDS011;6207;49.308;7.336;2023-04-03T23:25:26;12.40;;;11.80;;
12288;SDS011;6207;49.308;7.336;2023-04-03T23:27:52;12.40;;;11.80;;
12288;SDS011;6207;49.308;7.336;2023-04-03T23:30:20;12.60;;;12.00;;
12288;SDS011;6207;49.308;7.336;2023-04-03T23:32:47;13.17;;;12.20;;
12288;SDS011;6207;49.308;7.336;2023-04-03T23:35:14;12.60;;;11.90;;
12288;SDS011;6207;49.308;7.336;2023-04-03T23:37:40;12.43;;;11.83;;
12288;SDS011;6207;49.308;7.336;2023-04-03T23:40:08;12.53;;;11.73;;
12288;SDS011;6207;49.308;7.336;2023-04-03T23:42:35;12.60;;;12.00;;
12288;SDS011;6207;49.308;7.336;2023-04-03T23:45:01;12.60;;;11.90;;
12288;SDS011;6207;49.308;7.336;2023-04-03T23:47:28;12.60;;;11.90;;